createdAt,value
2018-05-27T00:01:56.639Z,9.73
2018-05-27T00:04:24.123Z,8.57
2018-05-27T00:06:51.626Z,8.83
2018-05-27T00:09:19.115Z,9.80
2018-05-27T00:11:46.715Z,9.00
2018-05-27T00:14:14.307Z,10.53
2018-05-27T00:16:41.918Z,9.40
2018-05-27T00:19:09.393Z,9.93
2018-05-27T00:21:37.326Z,8.60
2018-05-27T00:24:04.815Z,9.13
2018-05-27T00:26:32.324Z,9.20
2018-05-27T00:28:59.822Z,10.07
2018-05-27T00:31:27.807Z,10.13
2018-05-27T00:33:55.396Z,9.10
2018-05-27T00:36:22.893Z,9.30
2018-05-27T00:38:50.796Z,9.50
2018-05-27T00:41:18.679Z,8.73
2018-05-27T00:43:46.667Z,9.27
2018-05-27T00:46:14.642Z,9.37
2018-05-27T00:48:42.144Z,9.60
2018-05-27T00:51:10.121Z,10.20
2018-05-27T00:53:49.422Z,10.20
2018-05-27T00:56:17.304Z,9.80
2018-05-27T00:58:45.205Z,9.17
2018-05-27T01:01:13.167Z,10.37
2018-05-27T01:03:40.694Z,10.00
2018-05-27T01:06:08.182Z,10.13
2018-05-27T01:08:35.724Z,9.97
2018-05-27T01:11:03.215Z,9.33
2018-05-27T01:13:31.136Z,9.70
2018-05-27T01:15:58.680Z,10.33
2018-05-27T01:18:26.272Z,9.20
2018-05-27T01:20:53.787Z,10.43
2018-05-27T01:23:21.279Z,9.67
2018-05-27T01:25:48.787Z,9.63
2018-05-27T01:28:16.283Z,9.50
2018-05-27T01:30:43.787Z,9.70
2018-05-27T01:33:11.274Z,10.27
2018-05-27T01:35:38.779Z,11.00
2018-05-27T01:38:06.276Z,10.70
2018-05-27T01:40:33.819Z,10.33
2018-05-27T01:43:01.302Z,10.17
2018-05-27T01:45:28.815Z,10.40
2018-05-27T01:47:56.327Z,9.97
2018-05-27T01:50:23.834Z,9.70
2018-05-27T01:52:51.334Z,9.63
2018-05-27T01:55:19.628Z,9.97
2018-05-27T01:57:47.130Z,10.73
2018-05-27T02:00:14.619Z,9.43
2018-05-27T02:02:42.531Z,9.57
2018-05-27T02:05:10.025Z,9.33
2018-05-27T02:07:37.524Z,11.10
2018-05-27T02:10:05.011Z,10.07
2018-05-27T02:12:32.663Z,10.57
2018-05-27T02:15:00.220Z,9.97
2018-05-27T02:17:27.735Z,10.37
2018-05-27T02:19:55.281Z,10.00
2018-05-27T02:22:22.882Z,10.10
2018-05-27T02:24:50.380Z,11.73
2018-05-27T02:27:18.287Z,10.90
2018-05-27T02:29:45.780Z,9.33
2018-05-27T02:32:13.306Z,9.50
2018-05-27T02:34:40.807Z,9.63
2018-05-27T02:37:08.689Z,9.43
2018-05-27T02:39:36.207Z,10.47
2018-05-27T02:42:03.697Z,9.80
2018-05-27T02:44:31.209Z,9.93
2018-05-27T02:46:58.704Z,8.80
2018-05-27T02:49:26.314Z,10.00
2018-05-27T02:51:53.798Z,9.70
2018-05-27T02:54:21.375Z,9.47
2018-05-27T02:56:48.863Z,10.27
2018-05-27T02:59:16.367Z,10.23
2018-05-27T03:01:44.334Z,9.33
2018-05-27T03:04:11.855Z,10.83
2018-05-27T03:06:39.357Z,10.27
2018-05-27T03:09:06.900Z,9.40
2018-05-27T03:11:34.382Z,10.20
2018-05-27T03:14:02.268Z,9.67
2018-05-27T03:16:30.263Z,9.60
2018-05-27T03:18:58.983Z,9.43
2018-05-27T03:21:26.884Z,9.53
2018-05-27T03:23:54.767Z,10.67
2018-05-27T03:26:22.751Z,9.50
2018-05-27T03:28:50.246Z,9.70
2018-05-27T03:31:18.146Z,9.60
2018-05-27T03:33:46.123Z,9.57
2018-05-27T03:36:13.632Z,8.77
2018-05-27T03:38:41.116Z,9.57
2018-05-27T03:41:08.659Z,9.73
2018-05-27T03:43:36.147Z,9.60
2018-05-27T03:46:03.636Z,8.47
2018-05-27T03:48:31.558Z,9.40
2018-05-27T03:50:59.039Z,8.80
2018-05-27T03:53:26.605Z,10.00
2018-05-27T03:55:54.492Z,9.10
2018-05-27T03:58:22.075Z,8.87
2018-05-27T04:00:49.654Z,8.50
2018-05-27T04:03:17.150Z,9.50
2018-05-27T04:05:57.106Z,8.73
2018-05-27T04:08:31.447Z,9.70
2018-05-27T04:10:58.944Z,11.37
2018-05-27T04:13:26.464Z,15.13
2018-05-27T04:15:54.016Z,9.10
2018-05-27T04:18:21.514Z,9.13
2018-05-27T04:20:49.394Z,8.73
2018-05-27T04:23:16.915Z,11.37
2018-05-27T04:25:44.406Z,8.63
2018-05-27T04:28:11.947Z,9.10
2018-05-27T04:30:39.518Z,8.23
2018-05-27T04:33:07.017Z,7.70
2018-05-27T04:35:35.007Z,9.30
2018-05-27T04:38:02.520Z,9.67
2018-05-27T04:40:30.072Z,9.40
2018-05-27T04:42:57.646Z,8.87
2018-05-27T04:45:25.237Z,8.17
2018-05-27T04:47:52.723Z,10.03
2018-05-27T04:50:20.238Z,8.20
2018-05-27T04:52:47.792Z,8.50
2018-05-27T04:55:15.305Z,9.07
2018-05-27T04:57:43.177Z,9.07
2018-05-27T05:00:11.073Z,7.83
2018-05-27T05:02:38.953Z,8.30
2018-05-27T05:05:06.464Z,9.03
2018-05-27T05:07:34.014Z,8.43
2018-05-27T05:10:01.607Z,8.43
2018-05-27T05:12:29.112Z,8.43
2018-05-27T05:14:56.994Z,8.73
2018-05-27T05:17:24.889Z,8.43
2018-05-27T05:19:52.872Z,8.83
2018-05-27T05:22:20.388Z,7.93
2018-05-27T05:24:47.879Z,9.20
2018-05-27T05:27:15.387Z,8.60
2018-05-27T05:29:42.876Z,10.80
2018-05-27T05:32:10.406Z,8.20
2018-05-27T05:34:38.376Z,8.50
2018-05-27T05:37:05.963Z,8.47
2018-05-27T05:39:33.556Z,9.00
2018-05-27T05:42:01.034Z,9.17
2018-05-27T05:44:28.537Z,8.20
2018-05-27T05:46:56.413Z,7.70
2018-05-27T05:49:23.967Z,7.83
2018-05-27T05:51:51.418Z,8.60
2018-05-27T05:54:18.925Z,7.50
2018-05-27T05:56:46.417Z,7.90
2018-05-27T05:59:13.927Z,7.70
2018-05-27T06:01:41.424Z,7.97
2018-05-27T06:04:09.404Z,7.97
2018-05-27T06:06:36.899Z,8.10
2018-05-27T06:09:04.793Z,8.10
2018-05-27T06:11:32.670Z,8.07
2018-05-27T06:14:00.181Z,8.40
2018-05-27T06:16:27.667Z,7.10
2018-05-27T06:18:55.170Z,7.10
2018-05-27T06:21:22.691Z,7.83
2018-05-27T06:23:50.184Z,7.40
2018-05-27T06:26:17.687Z,7.17
2018-05-27T06:28:45.562Z,7.57
2018-05-27T06:31:13.065Z,7.97
2018-05-27T06:33:40.966Z,8.10
2018-05-27T06:36:08.476Z,8.53
2018-05-27T06:38:35.954Z,8.50
2018-05-27T06:41:03.461Z,8.73
2018-05-27T06:43:30.958Z,7.03
2018-05-27T06:45:58.467Z,8.73
2018-05-27T06:48:26.355Z,7.50
2018-05-27T06:50:53.862Z,8.10
2018-05-27T06:53:21.351Z,7.47
2018-05-27T06:55:48.861Z,7.80
2018-05-27T06:58:16.382Z,7.57
2018-05-27T07:00:43.871Z,8.10
2018-05-27T07:03:11.382Z,8.20
2018-05-27T07:05:38.862Z,8.63
2018-05-27T07:08:06.372Z,7.60
2018-05-27T07:10:33.850Z,7.90
2018-05-27T07:13:01.360Z,7.80
2018-05-27T07:15:28.872Z,7.17
2018-05-27T07:17:56.375Z,8.97
2018-05-27T07:20:24.264Z,7.47
2018-05-27T07:22:52.172Z,7.50
2018-05-27T07:25:19.715Z,7.67
2018-05-27T07:27:47.215Z,8.50
2018-05-27T07:30:15.120Z,8.80
2018-05-27T07:32:42.683Z,7.90
2018-05-27T07:35:10.163Z,7.00
2018-05-27T07:37:37.662Z,7.40
2018-05-27T07:40:05.626Z,6.70
2018-05-27T07:42:33.127Z,8.03
2018-05-27T07:45:00.611Z,7.93
2018-05-27T07:47:28.188Z,8.50
2018-05-27T07:49:55.680Z,7.47
2018-05-27T07:52:23.177Z,8.17
2018-05-27T07:54:51.064Z,8.10
2018-05-27T07:57:18.972Z,7.87
2018-05-27T07:59:46.460Z,7.47
2018-05-27T08:02:13.968Z,8.60
2018-05-27T08:04:41.456Z,7.97
2018-05-27T08:07:09.004Z,8.10
2018-05-27T08:09:36.550Z,7.93
2018-05-27T08:12:04.051Z,8.07
2018-05-27T08:14:31.943Z,7.87
2018-05-27T08:16:59.858Z,7.97
2018-05-27T08:19:27.442Z,8.03
2018-05-27T08:21:55.325Z,8.03
2018-05-27T08:24:23.230Z,7.63
2018-05-27T08:26:50.719Z,8.10
2018-05-27T08:29:18.226Z,7.73
2018-05-27T08:31:45.720Z,6.93
2018-05-27T08:34:13.225Z,8.20
2018-05-27T08:36:40.720Z,8.33
2018-05-27T08:39:08.619Z,7.03
2018-05-27T08:41:36.506Z,7.37
2018-05-27T08:44:04.074Z,8.17
2018-05-27T08:46:31.550Z,7.47
2018-05-27T08:48:59.081Z,7.70
2018-05-27T08:51:27.051Z,9.40
2018-05-27T08:53:54.957Z,8.93
2018-05-27T08:56:22.931Z,9.47
2018-05-27T08:58:50.434Z,11.13
2018-05-27T09:01:18.330Z,8.00
2018-05-27T09:03:46.289Z,7.83
2018-05-27T09:06:13.728Z,9.33
2018-05-27T09:08:41.268Z,7.63
2018-05-27T09:11:08.759Z,7.43
2018-05-27T09:13:36.336Z,7.83
2018-05-27T09:16:03.823Z,8.13
2018-05-27T09:18:31.327Z,7.87
2018-05-27T09:20:58.822Z,7.53
2018-05-27T09:23:26.332Z,8.20
2018-05-27T09:25:53.823Z,7.33
2018-05-27T09:28:21.442Z,7.77
2018-05-27T09:30:49.348Z,6.80
2018-05-27T09:33:17.239Z,7.80
2018-05-27T09:35:45.210Z,6.97
2018-05-27T09:38:12.722Z,8.17
2018-05-27T09:40:40.608Z,7.73
2018-05-27T09:43:08.587Z,8.33
2018-05-27T09:45:36.171Z,7.63
2018-05-27T09:48:03.659Z,7.87
2018-05-27T09:50:31.248Z,7.83
2018-05-27T09:52:59.175Z,7.23
2018-05-27T09:55:26.692Z,8.57
2018-05-27T09:57:54.192Z,7.23
2018-05-27T10:00:21.699Z,7.80
2018-05-27T10:02:49.658Z,6.90
2018-05-27T10:05:17.270Z,6.67
2018-05-27T10:07:44.800Z,6.90
2018-05-27T10:10:12.319Z,7.40
2018-05-27T10:12:39.800Z,7.13
2018-05-27T10:15:07.320Z,7.57
2018-05-27T10:17:35.207Z,7.87
2018-05-27T10:20:03.183Z,7.53
2018-05-27T10:22:30.772Z,7.50
2018-05-27T10:24:58.277Z,6.93
2018-05-27T10:27:26.175Z,7.40
2018-05-27T10:29:53.713Z,6.50
2018-05-27T10:32:21.198Z,6.20
2018-05-27T10:34:48.796Z,6.97
2018-05-27T10:37:16.300Z,7.00
2018-05-27T10:39:44.194Z,7.90
2018-05-27T10:42:12.071Z,8.70
2018-05-27T10:44:39.580Z,6.90
2018-05-27T10:47:07.068Z,7.20
2018-05-27T10:49:34.563Z,7.07
2018-05-27T10:52:02.067Z,6.70
2018-05-27T10:54:29.674Z,7.60
2018-05-27T10:56:57.188Z,7.43
2018-05-27T10:59:25.091Z,7.10
2018-05-27T11:01:52.649Z,6.97
2018-05-27T11:04:20.240Z,6.67
2018-05-27T11:06:48.123Z,6.40
2018-05-27T11:09:15.612Z,7.27
2018-05-27T11:11:43.417Z,6.33
2018-05-27T11:14:11.299Z,6.43
2018-05-27T11:16:39.201Z,6.00
2018-05-27T11:19:07.099Z,6.70
2018-05-27T11:21:34.998Z,7.03
2018-05-27T11:24:02.542Z,7.40
2018-05-27T11:26:30.135Z,6.90
2018-05-27T11:28:57.623Z,6.70
2018-05-27T11:31:25.136Z,6.93
2018-05-27T11:33:52.632Z,6.97
2018-05-27T11:36:20.139Z,6.33
2018-05-27T11:38:47.626Z,6.60
2018-05-27T11:41:15.134Z,7.03
2018-05-27T11:43:42.619Z,7.80
2018-05-27T11:46:10.118Z,11.37
2018-05-27T11:48:38.011Z,7.80
2018-05-27T11:51:05.532Z,8.00
2018-05-27T11:53:33.024Z,10.13
2018-05-27T11:56:00.531Z,8.30
2018-05-27T11:58:28.027Z,8.57
2018-05-27T12:00:55.526Z,7.77
2018-05-27T12:03:23.512Z,8.33
2018-05-27T12:05:51.087Z,9.20
2018-05-27T12:08:18.567Z,8.63
2018-05-27T12:10:46.067Z,8.70
2018-05-27T12:13:13.942Z,8.80
2018-05-27T12:15:41.444Z,8.30
2018-05-27T12:18:09.326Z,8.70
2018-05-27T12:20:36.903Z,9.03
2018-05-27T12:23:04.394Z,14.60
2018-05-27T12:25:31.919Z,19.40
2018-05-27T12:27:59.402Z,18.17
2018-05-27T12:30:26.889Z,10.00
2018-05-27T12:32:54.414Z,10.80
2018-05-27T12:35:21.894Z,10.77
2018-05-27T12:37:49.407Z,8.80
2018-05-27T12:40:17.286Z,9.83
2018-05-27T12:42:44.825Z,9.57
2018-05-27T12:45:12.294Z,8.37
2018-05-27T12:47:39.799Z,7.97
2018-05-27T12:50:07.287Z,7.53
2018-05-27T12:52:34.795Z,7.30
2018-05-27T12:55:02.279Z,7.07
2018-05-27T12:57:29.788Z,7.10
2018-05-27T12:59:57.676Z,6.97
2018-05-27T13:02:25.577Z,7.10
2018-05-27T13:04:53.064Z,7.10
2018-05-27T13:07:20.576Z,7.63
2018-05-27T13:09:48.064Z,6.20
2018-05-27T13:12:15.576Z,7.00
2018-05-27T13:14:43.158Z,12.90
2018-05-27T13:17:10.751Z,7.83
2018-05-27T13:19:38.239Z,7.03
2018-05-27T13:22:05.824Z,6.60
2018-05-27T13:24:33.311Z,6.77
2018-05-27T13:27:00.823Z,6.60
2018-05-27T13:29:28.319Z,6.93
2018-05-27T13:31:55.826Z,7.27
2018-05-27T13:34:23.312Z,6.57
2018-05-27T13:36:50.856Z,7.47
2018-05-27T13:39:18.340Z,6.00
2018-05-27T13:41:45.855Z,6.73
2018-05-27T13:44:13.333Z,7.30
2018-05-27T13:46:40.836Z,6.17
2018-05-27T13:49:08.357Z,12.03
2018-05-27T13:51:35.836Z,6.40
2018-05-27T13:54:03.407Z,7.23
2018-05-27T13:56:30.981Z,6.30
2018-05-27T13:58:58.487Z,7.13
2018-05-27T14:01:26.371Z,7.50
2018-05-27T14:03:53.883Z,6.60
2018-05-27T14:06:21.362Z,6.67
2018-05-27T14:08:49.261Z,7.00
2018-05-27T14:11:16.803Z,7.40
2018-05-27T14:13:44.299Z,6.83
2018-05-27T14:16:11.789Z,9.27
2018-05-27T14:18:39.766Z,8.00
2018-05-27T14:21:07.356Z,6.80
2018-05-27T14:23:34.888Z,6.60
2018-05-27T14:26:02.439Z,6.93
2018-05-27T14:28:29.912Z,6.53
2018-05-27T14:30:57.794Z,6.80
2018-05-27T14:33:25.309Z,7.57
2018-05-27T14:35:52.860Z,6.80
2018-05-27T14:38:20.372Z,6.57
2018-05-27T14:40:48.329Z,7.13
2018-05-27T14:43:15.928Z,7.80
2018-05-27T14:45:43.415Z,7.80
2018-05-27T14:48:10.923Z,6.97
2018-05-27T14:50:38.420Z,7.67
2018-05-27T14:53:05.933Z,7.10
2018-05-27T14:55:33.413Z,7.40
2018-05-27T14:58:00.964Z,7.23
2018-05-27T15:00:28.507Z,9.10
2018-05-27T15:02:56.012Z,7.50
2018-05-27T15:05:23.975Z,7.07
2018-05-27T15:07:51.483Z,6.90
2018-05-27T15:10:19.358Z,6.67
2018-05-27T15:12:46.875Z,6.03
2018-05-27T15:15:14.830Z,5.17
2018-05-27T15:17:42.329Z,6.23
2018-05-27T15:20:09.830Z,6.60
2018-05-27T15:22:37.709Z,6.30
2018-05-27T15:25:05.742Z,6.63
2018-05-27T15:27:33.682Z,7.37
2018-05-27T15:30:01.277Z,5.73
2018-05-27T15:32:29.263Z,5.90
2018-05-27T15:34:56.772Z,6.77
2018-05-27T15:37:24.780Z,5.67
2018-05-27T15:39:52.283Z,6.13
2018-05-27T15:42:19.767Z,7.53
2018-05-27T15:44:47.261Z,7.83
2018-05-27T15:47:14.748Z,6.63
2018-05-27T15:49:42.255Z,6.90
2018-05-27T15:52:09.742Z,5.93
2018-05-27T15:54:37.255Z,6.33
2018-05-27T15:57:04.735Z,8.33
2018-05-27T15:59:32.638Z,11.00
2018-05-27T16:02:00.124Z,6.97
2018-05-27T16:04:27.687Z,6.40
2018-05-27T16:06:55.576Z,6.30
2018-05-27T16:09:23.475Z,7.20
2018-05-27T16:11:51.368Z,10.93
2018-05-27T16:14:19.267Z,9.00
2018-05-27T16:16:46.776Z,6.63
2018-05-27T16:19:14.279Z,6.27
2018-05-27T16:21:41.796Z,6.93
2018-05-27T16:24:09.300Z,6.87
2018-05-27T16:26:37.184Z,7.70
2018-05-27T16:29:05.074Z,6.93
2018-05-27T16:31:32.961Z,7.17
2018-05-27T16:34:00.849Z,8.20
2018-05-27T16:36:28.335Z,7.83
2018-05-27T16:38:56.271Z,6.53
2018-05-27T16:41:23.753Z,10.10
2018-05-27T16:43:51.249Z,7.60
2018-05-27T16:46:18.759Z,9.03
2018-05-27T16:48:46.246Z,7.23
2018-05-27T16:51:13.752Z,6.80
2018-05-27T16:53:41.630Z,6.00
2018-05-27T16:56:09.210Z,7.77
2018-05-27T16:58:36.793Z,8.80
2018-05-27T17:01:04.301Z,6.43
2018-05-27T17:03:32.270Z,9.77
2018-05-27T17:05:59.779Z,13.97
2018-05-27T17:08:27.658Z,7.73
2018-05-27T17:10:55.200Z,13.80
2018-05-27T17:13:22.699Z,10.17
2018-05-27T17:15:50.304Z,6.50
2018-05-27T17:18:17.799Z,6.80
2018-05-27T17:20:45.779Z,7.30
2018-05-27T17:23:13.262Z,9.17
2018-05-27T17:25:40.784Z,8.80
2018-05-27T17:28:08.287Z,9.37
2018-05-27T17:30:35.816Z,9.03
2018-05-27T17:33:03.308Z,9.10
2018-05-27T17:35:31.232Z,9.33
2018-05-27T17:37:58.739Z,9.57
2018-05-27T17:40:26.254Z,10.20
2018-05-27T17:42:53.733Z,9.73
2018-05-27T17:45:21.314Z,9.40
2018-05-27T17:47:48.801Z,8.63
2018-05-27T17:50:16.311Z,9.40
2018-05-27T17:52:44.193Z,9.50
2018-05-27T17:55:12.099Z,9.30
2018-05-27T17:57:39.983Z,8.77
2018-05-27T18:00:07.955Z,9.90
2018-05-27T18:02:35.447Z,9.90
2018-05-27T18:05:02.940Z,8.60
2018-05-27T18:07:30.479Z,9.13
2018-05-27T18:09:57.968Z,9.87
2018-05-27T18:12:25.484Z,9.37
2018-05-27T18:14:53.502Z,10.30
2018-05-27T18:17:21.059Z,10.40
2018-05-27T18:19:48.552Z,8.77
2018-05-27T18:22:16.538Z,9.53
2018-05-27T18:24:44.031Z,9.87
2018-05-27T18:27:11.940Z,9.90
2018-05-27T18:29:39.928Z,11.00
2018-05-27T18:32:07.905Z,9.13
2018-05-27T18:34:35.391Z,9.43
2018-05-27T18:37:02.971Z,9.10
2018-05-27T18:39:30.460Z,8.90
2018-05-27T18:41:57.967Z,8.43
2018-05-27T18:44:25.519Z,8.33
2018-05-27T18:46:53.028Z,8.70
2018-05-27T18:49:20.907Z,9.63
2018-05-27T18:51:48.815Z,8.67
2018-05-27T18:54:16.774Z,9.70
2018-05-27T18:56:44.367Z,9.73
2018-05-27T18:59:11.974Z,8.80
2018-05-27T19:01:39.868Z,9.93
2018-05-27T19:04:07.751Z,12.10
2018-05-27T19:06:35.653Z,9.47
2018-05-27T19:09:03.539Z,10.47
2018-05-27T19:11:31.445Z,10.93
2018-05-27T19:13:59.328Z,9.00
2018-05-27T19:16:27.295Z,11.33
2018-05-27T19:18:54.786Z,10.77
2018-05-27T19:21:22.327Z,11.43
2018-05-27T19:23:49.819Z,10.70
2018-05-27T19:26:17.340Z,11.30
2018-05-27T19:28:44.837Z,12.00
2018-05-27T19:31:12.730Z,11.47
2018-05-27T19:33:40.634Z,11.10
2018-05-27T19:36:08.511Z,9.60
2018-05-27T19:38:36.420Z,10.63
2018-05-27T19:41:03.920Z,11.13
2018-05-27T19:43:31.479Z,9.77
2018-05-27T19:45:59.391Z,12.83
2018-05-27T19:48:26.944Z,12.70
2018-05-27T19:50:54.696Z,10.40
2018-05-27T19:53:22.207Z,10.70
2018-05-27T19:55:49.706Z,10.53
2018-05-27T19:58:17.690Z,11.13
2018-05-27T20:00:45.307Z,10.03
2018-05-27T20:03:12.854Z,9.83
2018-05-27T20:05:40.439Z,9.93
2018-05-27T20:08:08.026Z,11.40
2018-05-27T20:10:35.612Z,13.03
2018-05-27T20:13:03.118Z,12.10
2018-05-27T20:15:31.005Z,10.77
2018-05-27T20:17:58.915Z,9.43
2018-05-27T20:20:26.403Z,8.63
2018-05-27T20:22:53.882Z,9.10
2018-05-27T20:25:21.385Z,9.70
2018-05-27T20:27:48.878Z,7.60
2018-05-27T20:30:16.383Z,8.07
2018-05-27T20:32:43.975Z,7.93
2018-05-27T20:35:11.483Z,7.70
2018-05-27T20:37:39.362Z,8.53
2018-05-27T20:40:06.872Z,7.77
2018-05-27T20:42:34.410Z,11.27
2018-05-27T20:45:01.921Z,8.00
2018-05-27T20:47:29.829Z,8.43
2018-05-27T20:49:57.376Z,8.53
2018-05-27T20:52:24.839Z,8.13
2018-05-27T20:54:52.386Z,11.80
2018-05-27T20:57:19.877Z,8.07
2018-05-27T20:59:47.368Z,8.90
2018-05-27T21:02:14.905Z,8.50
2018-05-27T21:04:42.390Z,7.73
2018-05-27T21:07:10.297Z,8.33
2018-05-27T21:09:38.169Z,8.40
2018-05-27T21:12:05.674Z,8.73
2018-05-27T21:14:33.163Z,8.60
2018-05-27T21:17:00.667Z,14.77
2018-05-27T21:19:28.196Z,9.40
2018-05-27T21:21:55.699Z,11.30
2018-05-27T21:24:23.583Z,10.00
2018-05-27T21:26:51.567Z,9.60
2018-05-27T21:29:19.063Z,10.00
2018-05-27T21:31:47.045Z,11.17
2018-05-27T21:34:14.563Z,10.73
2018-05-27T21:36:42.042Z,9.03
2018-05-27T21:39:09.942Z,10.60
2018-05-27T21:41:37.428Z,9.90
2018-05-27T21:44:05.005Z,9.90
2018-05-27T21:46:32.550Z,10.17
2018-05-27T21:49:00.061Z,11.87
2018-05-27T21:51:28.034Z,10.63
2018-05-27T21:53:55.535Z,9.83
2018-05-27T21:56:23.414Z,16.80
2018-05-27T21:58:50.955Z,10.70
2018-05-27T22:01:18.444Z,9.40
2018-05-27T22:03:45.967Z,13.53
2018-05-27T22:06:13.454Z,8.77
2018-05-27T22:08:40.987Z,10.03
2018-05-27T22:11:08.492Z,9.20
2018-05-27T22:13:36.019Z,10.17
2018-05-27T22:16:03.994Z,13.57
2018-05-27T22:18:31.487Z,10.77
2018-05-27T22:20:59.438Z,12.97
2018-05-27T22:23:26.942Z,11.33
2018-05-27T22:25:54.456Z,11.17
2018-05-27T22:28:22.433Z,11.10
2018-05-27T22:30:50.045Z,11.13
2018-05-27T22:33:17.586Z,13.67
2018-05-27T22:35:45.092Z,10.80
2018-05-27T22:38:13.000Z,14.17
2018-05-27T22:40:40.920Z,13.50
2018-05-27T22:43:08.455Z,11.50
2018-05-27T22:45:35.962Z,11.77
2018-05-27T22:48:03.931Z,12.43
2018-05-27T22:50:31.437Z,11.00
2018-05-27T22:53:05.335Z,11.20
2018-05-27T22:55:33.654Z,10.83
2018-05-27T22:58:01.228Z,11.97
2018-05-27T23:00:28.732Z,12.53
2018-05-27T23:02:56.272Z,11.97
2018-05-27T23:05:23.819Z,10.27
2018-05-27T23:07:51.378Z,10.57
2018-05-27T23:10:18.975Z,13.53
2018-05-27T23:12:46.909Z,10.93
2018-05-27T23:15:14.441Z,13.40
2018-05-27T23:17:42.343Z,10.53
2018-05-27T23:20:10.347Z,11.07
2018-05-27T23:22:37.847Z,10.77
2018-05-27T23:25:05.378Z,11.90
2018-05-27T23:27:32.867Z,11.10
2018-05-27T23:30:00.395Z,10.93
2018-05-27T23:32:27.994Z,10.70
2018-05-27T23:34:55.507Z,14.23
2018-05-27T23:37:23.009Z,10.73
2018-05-27T23:39:50.523Z,11.10
2018-05-27T23:42:18.099Z,11.13
2018-05-27T23:44:45.991Z,11.70
2018-05-27T23:47:13.930Z,11.40
2018-05-27T23:49:41.426Z,11.47
2018-05-27T23:52:08.955Z,11.63
2018-05-27T23:54:36.901Z,10.57
2018-05-27T23:57:04.415Z,11.40
2018-05-27T23:59:32.019Z,12.00
